createdAt,value
2022-11-05T00:02:01.921Z,13.60
2022-11-05T00:04:48.737Z,13.30
2022-11-05T00:07:40.033Z,13.40
2022-11-05T00:10:15.313Z,13.40
2022-11-05T00:12:58.141Z,13.50
2022-11-05T00:15:43.904Z,13.50
2022-11-05T00:18:13.804Z,13.20
2022-11-05T00:20:45.555Z,12.90
2022-11-05T00:23:31.529Z,12.70
2022-11-05T00:26:01.944Z,12.80
2022-11-05T00:28:31.698Z,12.80
2022-11-05T00:31:02.633Z,12.90
2022-11-05T00:33:32.260Z,12.70
2022-11-05T00:36:03.367Z,12.70
2022-11-05T00:38:33.564Z,12.70
2022-11-05T00:41:01.796Z,12.80
2022-11-05T00:43:47.814Z,12.90
2022-11-05T00:46:15.926Z,12.80
2022-11-05T00:49:07.388Z,12.80
2022-11-05T00:51:36.783Z,12.70
2022-11-05T00:54:05.445Z,12.90
2022-11-05T00:56:33.800Z,12.90
2022-11-05T00:59:01.840Z,12.80
2022-11-05T01:01:29.875Z,12.90
2022-11-05T01:03:58.357Z,12.60
2022-11-05T01:06:26.331Z,12.40
2022-11-05T01:08:57.137Z,12.60
2022-11-05T01:11:34.896Z,12.50
2022-11-05T01:14:03.984Z,12.40
2022-11-05T01:16:33.168Z,12.30
2022-11-05T01:19:03.035Z,12.30
2022-11-05T01:21:31.102Z,12.20
2022-11-05T01:24:00.553Z,12.20
2022-11-05T01:26:29.448Z,12.00
2022-11-05T01:29:00.257Z,11.90
2022-11-05T01:31:30.087Z,12.00
2022-11-05T01:33:58.103Z,12.00
2022-11-05T01:36:26.106Z,12.10
2022-11-05T01:38:54.560Z,12.20
2022-11-05T01:41:23.899Z,12.20
2022-11-05T01:43:54.848Z,12.20
2022-11-05T01:46:27.525Z,12.30
2022-11-05T01:49:03.263Z,12.30
2022-11-05T01:51:32.488Z,12.10
2022-11-05T01:54:06.501Z,12.10
2022-11-05T01:56:40.021Z,12.20
2022-11-05T01:59:11.167Z,12.40
2022-11-05T02:01:40.468Z,12.40
2022-11-05T02:04:12.639Z,12.10
2022-11-05T02:06:49.192Z,11.90
2022-11-05T02:09:25.406Z,11.70
2022-11-05T02:11:55.593Z,11.70
2022-11-05T02:14:23.706Z,12.00
2022-11-05T02:16:58.057Z,11.80
2022-11-05T02:19:52.413Z,11.50
2022-11-05T02:22:49.744Z,11.40
2022-11-05T02:25:42.681Z,11.20
2022-11-05T02:28:39.252Z,11.20
2022-11-05T02:31:14.645Z,11.20
2022-11-05T02:33:57.348Z,11.20
2022-11-05T02:36:38.018Z,11.00
2022-11-05T02:39:16.882Z,10.90
2022-11-05T02:42:03.509Z,11.20
2022-11-05T02:44:43.112Z,11.50
2022-11-05T02:47:24.668Z,11.50
2022-11-05T02:50:04.797Z,11.60
2022-11-05T02:52:38.604Z,11.30
2022-11-05T02:55:17.884Z,11.30
2022-11-05T02:57:49.242Z,11.30
2022-11-05T03:00:50.805Z,11.20
2022-11-05T03:03:30.536Z,11.20
2022-11-05T03:06:30.154Z,11.30
2022-11-05T03:09:42.725Z,11.30
2022-11-05T03:12:31.040Z,11.10
2022-11-05T03:15:08.333Z,11.10
2022-11-05T03:17:45.824Z,10.60
2022-11-05T03:20:20.665Z,10.60
2022-11-05T03:22:55.128Z,10.60
2022-11-05T03:25:25.544Z,10.80
2022-11-05T03:27:59.874Z,10.70
2022-11-05T03:30:28.436Z,10.60
2022-11-05T03:33:07.018Z,10.80
2022-11-05T03:35:41.221Z,10.80
2022-11-05T03:38:14.860Z,10.90
2022-11-05T03:40:47.726Z,10.80
2022-11-05T03:43:17.785Z,11.10
2022-11-05T03:45:51.488Z,11.40
2022-11-05T03:48:21.917Z,11.40
2022-11-05T03:51:00.070Z,11.00
2022-11-05T03:53:31.755Z,10.90
2022-11-05T03:56:06.393Z,10.40
2022-11-05T03:58:36.910Z,10.40
2022-11-05T04:01:06.061Z,10.50
2022-11-05T04:03:37.913Z,10.60
2022-11-05T04:06:28.451Z,10.60
2022-11-05T04:09:14.974Z,10.80
2022-11-05T04:12:00.589Z,10.90
2022-11-05T04:14:29.433Z,11.00
2022-11-05T04:17:09.538Z,11.00
2022-11-05T04:19:57.844Z,11.20
2022-11-05T04:22:46.827Z,10.90
2022-11-05T04:25:19.186Z,10.70
2022-11-05T04:27:48.308Z,10.40
2022-11-05T04:30:21.118Z,10.50
2022-11-05T04:33:04.154Z,10.70
2022-11-05T04:35:34.732Z,10.70
2022-11-05T04:38:05.476Z,10.60
2022-11-05T04:40:34.477Z,10.70
2022-11-05T04:43:02.482Z,10.80
2022-11-05T04:45:35.534Z,10.70
2022-11-05T04:48:04.367Z,10.70
2022-11-05T04:50:32.594Z,10.60
2022-11-05T04:53:01.593Z,10.50
2022-11-05T04:55:31.175Z,10.30
2022-11-05T04:57:59.758Z,10.20
2022-11-05T05:00:28.346Z,10.10
2022-11-05T05:02:56.768Z,10.10
2022-11-05T05:05:24.838Z,10.20
2022-11-05T05:07:53.965Z,10.00
2022-11-05T05:10:21.965Z,10.00
2022-11-05T05:12:52.131Z,10.10
2022-11-05T05:15:21.661Z,9.80
2022-11-05T05:17:52.141Z,10.20
2022-11-05T05:20:38.823Z,10.20
2022-11-05T05:23:06.868Z,10.40
2022-11-05T05:25:36.895Z,10.20
2022-11-05T05:28:08.128Z,10.10
2022-11-05T05:30:36.792Z,10.30
2022-11-05T05:33:05.955Z,10.10
2022-11-05T05:35:35.298Z,10.30
2022-11-05T05:38:03.484Z,10.40
2022-11-05T05:40:31.688Z,10.40
2022-11-05T05:43:01.259Z,10.40
2022-11-05T05:45:32.082Z,10.40
2022-11-05T05:48:01.128Z,10.20
2022-11-05T05:50:35.692Z,10.30
2022-11-05T05:53:12.144Z,10.30
2022-11-05T05:55:41.862Z,10.50
2022-11-05T05:58:10.211Z,10.80
2022-11-05T06:00:52.728Z,10.40
2022-11-05T06:03:21.314Z,10.50
2022-11-05T06:05:49.703Z,10.50
2022-11-05T06:08:18.692Z,10.60
2022-11-05T06:10:59.163Z,10.30
2022-11-05T06:13:41.220Z,10.40
2022-11-05T06:16:12.403Z,10.10
2022-11-05T06:18:45.037Z,10.40
2022-11-05T06:21:37.723Z,10.00
2022-11-05T06:24:07.328Z,10.10
2022-11-05T06:26:43.486Z,10.10
2022-11-05T06:29:16.535Z,10.30
2022-11-05T06:31:46.366Z,10.40
2022-11-05T06:34:16.564Z,10.40
2022-11-05T06:36:45.040Z,9.80
2022-11-05T06:39:13.860Z,9.70
2022-11-05T06:42:12.177Z,9.80
2022-11-05T06:44:35.008Z,9.90
2022-11-05T06:47:05.393Z,9.80
2022-11-05T06:49:34.191Z,10.00
2022-11-05T06:52:03.046Z,10.00
2022-11-05T06:54:32.085Z,9.80
2022-11-05T06:57:00.696Z,9.70
2022-11-05T06:59:29.034Z,10.00
2022-11-05T07:01:58.019Z,10.30
2022-11-05T07:04:28.039Z,10.00
2022-11-05T07:06:57.068Z,10.00
2022-11-05T07:09:25.527Z,9.90
2022-11-05T07:11:54.556Z,10.00
2022-11-05T07:14:23.490Z,9.70
2022-11-05T07:16:52.307Z,9.80
2022-11-05T07:19:20.898Z,9.90
2022-11-05T07:21:51.947Z,9.80
2022-11-05T07:24:20.424Z,9.80
2022-11-05T07:26:48.950Z,9.90
2022-11-05T07:29:18.890Z,9.60
2022-11-05T07:31:48.051Z,9.30
2022-11-05T07:34:16.799Z,9.30
2022-11-05T07:36:45.302Z,9.20
2022-11-05T07:39:15.561Z,9.30
2022-11-05T07:41:43.970Z,9.80
2022-11-05T07:44:14.486Z,9.60
2022-11-05T07:46:43.285Z,9.50
2022-11-05T07:49:11.580Z,9.50
2022-11-05T07:51:40.266Z,9.80
2022-11-05T07:54:08.522Z,9.80
2022-11-05T07:56:38.665Z,9.80
2022-11-05T07:59:09.649Z,9.70
2022-11-05T08:01:38.278Z,9.90
2022-11-05T08:04:07.449Z,9.70
2022-11-05T08:06:35.989Z,10.10
2022-11-05T08:09:04.746Z,9.90
2022-11-05T08:11:35.079Z,10.00
2022-11-05T08:14:07.804Z,10.10
2022-11-05T08:16:38.300Z,9.70
2022-11-05T08:19:07.707Z,10.00
2022-11-05T08:21:35.991Z,10.10
2022-11-05T08:24:05.296Z,9.90
2022-11-05T08:26:34.735Z,9.90
2022-11-05T08:29:04.087Z,10.20
2022-11-05T08:31:37.402Z,10.00
2022-11-05T08:34:05.844Z,10.10
2022-11-05T08:36:36.239Z,10.30
2022-11-05T08:39:05.426Z,10.30
2022-11-05T08:41:33.881Z,10.40
2022-11-05T08:44:02.350Z,10.60
2022-11-05T08:46:30.772Z,11.00
2022-11-05T08:49:00.591Z,10.90
2022-11-05T08:51:30.170Z,10.70
2022-11-05T08:53:59.120Z,11.00
2022-11-05T08:56:27.568Z,11.00
2022-11-05T08:58:56.151Z,10.90
2022-11-05T09:01:25.453Z,10.70
2022-11-05T09:03:54.271Z,10.60
2022-11-05T09:06:24.727Z,10.80
2022-11-05T09:08:53.703Z,11.00
2022-11-05T09:11:22.303Z,10.60
2022-11-05T09:13:51.452Z,11.00
2022-11-05T09:16:22.791Z,11.30
2022-11-05T09:18:51.581Z,11.10
2022-11-05T09:21:20.543Z,11.30
2022-11-05T09:23:51.309Z,11.40
2022-11-05T09:26:20.088Z,11.30
2022-11-05T09:28:48.473Z,11.50
2022-11-05T09:34:08.813Z,11.60
2022-11-05T09:36:38.369Z,11.50
2022-11-05T09:39:16.167Z,11.80
2022-11-05T09:41:59.245Z,11.60
2022-11-05T09:44:40.513Z,11.70
2022-11-05T09:57:17.780Z,11.70
2022-11-05T09:59:49.945Z,11.90
2022-11-05T10:02:22.006Z,12.00
2022-11-05T10:04:56.363Z,12.00
2022-11-05T10:07:30.251Z,11.70
2022-11-05T10:10:03.271Z,11.60
2022-11-05T10:12:41.533Z,11.70
2022-11-05T10:15:16.050Z,11.70
2022-11-05T10:17:51.917Z,12.10
2022-11-05T10:20:26.048Z,12.10
2022-11-05T10:22:57.613Z,12.40
2022-11-05T10:25:31.512Z,12.70
2022-11-05T10:28:01.688Z,13.30
2022-11-05T10:30:29.902Z,13.20
2022-11-05T10:33:00.900Z,13.30
2022-11-05T10:35:32.434Z,13.50
2022-11-05T10:38:03.318Z,13.70
2022-11-05T10:40:40.678Z,13.80
2022-11-05T10:43:16.921Z,13.50
2022-11-05T10:45:53.448Z,13.20
2022-11-05T10:48:43.646Z,13.20
2022-11-05T10:51:13.695Z,13.00
2022-11-05T10:53:49.778Z,12.90
2022-11-05T10:56:33.368Z,12.80
2022-11-05T10:59:10.947Z,13.20
2022-11-05T11:01:41.040Z,12.90
2022-11-05T11:04:18.044Z,13.20
2022-11-05T11:06:51.195Z,13.50
2022-11-05T11:09:24.846Z,14.40
2022-11-05T11:12:01.679Z,14.80
2022-11-05T11:14:35.263Z,16.00
2022-11-05T11:17:26.536Z,17.00
2022-11-05T11:20:20.968Z,17.50
2022-11-05T11:23:01.199Z,17.70
2022-11-05T11:25:31.978Z,17.20
2022-11-05T11:28:04.588Z,17.40
2022-11-05T11:30:35.720Z,17.20
2022-11-05T11:33:10.345Z,16.40
2022-11-05T11:35:40.170Z,15.60
2022-11-05T11:38:14.537Z,15.20
2022-11-05T11:40:43.792Z,14.60
2022-11-05T11:43:21.454Z,14.50
2022-11-05T11:45:54.128Z,14.60
2022-11-05T11:48:25.619Z,14.50
2022-11-05T11:50:55.102Z,14.60
2022-11-05T11:53:29.738Z,14.60
2022-11-05T11:56:07.087Z,14.40
2022-11-05T11:58:42.766Z,14.40
2022-11-05T12:01:32.800Z,14.40
2022-11-05T12:04:10.796Z,14.50
2022-11-05T12:06:48.535Z,14.50
2022-11-05T12:09:25.518Z,14.80
2022-11-05T12:12:01.554Z,15.60
2022-11-05T12:14:42.319Z,16.20
2022-11-05T12:17:27.964Z,17.10
2022-11-05T12:20:26.666Z,17.50
2022-11-05T12:23:37.186Z,17.10
2022-11-05T12:26:17.180Z,16.80
2022-11-05T12:32:03.133Z,16.50
2022-11-05T12:34:48.694Z,15.60
2022-11-05T12:37:32.347Z,15.60
2022-11-05T12:40:34.856Z,15.60
2022-11-05T12:43:13.512Z,15.40
2022-11-05T12:45:49.713Z,15.50
2022-11-05T12:48:38.387Z,15.00
2022-11-05T12:51:21.348Z,14.70
2022-11-05T12:53:59.622Z,13.90
2022-11-05T12:56:34.451Z,13.60
2022-11-05T12:59:13.663Z,13.50
2022-11-05T13:01:50.433Z,13.60
2022-11-05T13:04:36.661Z,13.80
2022-11-05T13:07:10.573Z,14.00
2022-11-05T13:09:45.030Z,13.80
2022-11-05T13:12:18.276Z,14.40
2022-11-05T13:14:54.991Z,14.90
2022-11-05T13:17:27.217Z,15.20
2022-11-05T13:20:03.191Z,14.80
2022-11-05T13:22:39.176Z,14.50
2022-11-05T13:25:17.923Z,14.90
2022-11-05T13:27:53.716Z,14.40
2022-11-05T13:30:24.029Z,14.50
2022-11-05T13:33:00.275Z,14.50
2022-11-05T13:35:31.787Z,14.50
2022-11-05T13:38:24.650Z,14.20
2022-11-05T13:41:07.283Z,13.60
2022-11-05T13:44:12.245Z,13.80
2022-11-05T13:46:55.080Z,13.80
2022-11-05T13:49:43.797Z,14.00
2022-11-05T13:52:28.136Z,14.30
2022-11-05T13:55:19.600Z,14.30
2022-11-05T13:58:14.507Z,14.40
2022-11-05T14:00:49.702Z,14.60
2022-11-05T14:03:21.236Z,14.40
2022-11-05T14:05:55.934Z,14.60
2022-11-05T14:08:28.710Z,14.70
2022-11-05T14:11:04.552Z,14.70
2022-11-05T14:13:35.772Z,14.20
2022-11-05T14:16:09.297Z,14.40
2022-11-05T14:19:24.469Z,14.60
2022-11-05T14:21:54.576Z,14.40
2022-11-05T14:24:40.478Z,14.10
2022-11-05T14:27:53.550Z,14.10
2022-11-05T14:30:47.013Z,13.90
2022-11-05T14:33:32.089Z,13.70
2022-11-05T14:36:32.867Z,13.80
2022-11-05T14:39:19.785Z,13.70
2022-11-05T14:42:01.434Z,13.50
2022-11-05T14:44:36.407Z,13.50
2022-11-05T14:47:20.685Z,13.70
2022-11-05T14:49:54.374Z,14.10
2022-11-05T14:52:22.982Z,14.20
2022-11-05T14:54:53.444Z,13.80
2022-11-05T14:57:55.432Z,13.60
2022-11-05T15:00:55.533Z,13.90
2022-11-05T15:03:42.577Z,13.60
2022-11-05T15:06:26.697Z,13.70
2022-11-05T15:09:15.430Z,14.20
2022-11-05T15:11:53.510Z,13.90
2022-11-05T15:14:27.973Z,14.20
2022-11-05T15:17:05.229Z,14.30
2022-11-05T15:19:38.340Z,14.30
2022-11-05T15:22:21.939Z,14.50
2022-11-05T15:24:53.816Z,14.50
2022-11-05T15:27:35.779Z,14.50
2022-11-05T15:30:14.721Z,14.60
2022-11-05T15:32:43.697Z,14.70
2022-11-05T15:35:24.619Z,14.60
2022-11-05T15:37:57.422Z,14.60
2022-11-05T15:40:35.389Z,14.50
2022-11-05T15:43:20.138Z,14.10
2022-11-05T15:46:17.947Z,14.20
2022-11-05T15:48:53.110Z,14.20
2022-11-05T15:51:24.339Z,13.90
2022-11-05T15:56:50.808Z,14.00
2022-11-05T15:59:24.405Z,13.50
2022-11-05T16:01:56.153Z,13.40
2022-11-05T16:04:26.615Z,13.70
2022-11-05T16:06:59.790Z,13.70
2022-11-05T16:09:31.127Z,13.40
2022-11-05T16:12:28.070Z,13.50
2022-11-05T16:15:04.537Z,13.60
2022-11-05T16:17:45.480Z,13.70
2022-11-05T16:20:30.036Z,13.70
2022-11-05T16:23:01.253Z,13.90
2022-11-05T16:25:45.773Z,13.60
2022-11-05T16:28:23.065Z,13.60
2022-11-05T16:30:56.685Z,13.40
2022-11-05T16:33:26.235Z,12.90
2022-11-05T16:35:54.419Z,13.00
2022-11-05T16:38:24.489Z,13.20
2022-11-05T16:40:52.568Z,13.00
2022-11-05T16:43:24.867Z,12.80
2022-11-05T16:45:55.753Z,12.60
2022-11-05T16:48:24.348Z,12.90
2022-11-05T16:50:54.345Z,12.80
2022-11-05T16:53:24.338Z,12.30
2022-11-05T16:55:52.526Z,12.60
2022-11-05T16:58:22.856Z,12.70
2022-11-05T17:00:53.160Z,12.90
2022-11-05T17:03:21.417Z,12.50
2022-11-05T17:05:49.630Z,12.20
2022-11-05T17:08:18.524Z,12.60
2022-11-05T17:10:47.939Z,12.10
2022-11-05T17:13:19.443Z,12.40
2022-11-05T17:15:50.377Z,12.70
2022-11-05T17:18:19.649Z,12.40
2022-11-05T17:20:49.872Z,12.40
2022-11-05T17:23:19.534Z,12.50
2022-11-05T17:25:54.847Z,12.60
2022-11-05T17:28:23.777Z,12.40
2022-11-05T17:30:53.358Z,12.50
2022-11-05T17:33:24.613Z,12.60
2022-11-05T17:35:56.157Z,12.70
2022-11-05T17:38:26.378Z,12.60
2022-11-05T17:40:55.761Z,12.60
2022-11-05T17:43:24.762Z,12.70
2022-11-05T17:45:55.808Z,12.40
2022-11-05T17:48:25.611Z,12.50
2022-11-05T17:50:54.025Z,12.30
2022-11-05T17:53:22.375Z,12.70
2022-11-05T17:55:50.391Z,12.80
2022-11-05T17:58:20.190Z,12.80
2022-11-05T18:00:49.566Z,12.90
2022-11-05T18:03:17.594Z,12.80
2022-11-05T18:05:46.264Z,12.60
2022-11-05T18:08:14.659Z,12.00
2022-11-05T18:10:43.218Z,12.20
2022-11-05T18:13:12.238Z,12.40
2022-11-05T18:15:42.793Z,12.50
2022-11-05T18:18:11.634Z,11.90
2022-11-05T18:20:40.170Z,11.80
2022-11-05T18:23:09.807Z,12.00
2022-11-05T18:25:40.370Z,11.80
2022-11-05T18:28:10.858Z,12.00
2022-11-05T18:30:39.583Z,11.90
2022-11-05T18:33:11.930Z,12.20
2022-11-05T18:35:44.444Z,12.20
2022-11-05T18:38:13.428Z,12.30
2022-11-05T18:40:41.631Z,12.00
2022-11-05T18:43:10.525Z,12.00
2022-11-05T18:45:39.784Z,12.30
2022-11-05T18:48:12.421Z,11.90
2022-11-05T18:50:40.991Z,12.20
2022-11-05T18:53:09.114Z,12.10
2022-11-05T18:55:39.646Z,12.10
2022-11-05T18:58:09.270Z,12.30
2022-11-05T19:00:39.758Z,11.80
2022-11-05T19:03:09.840Z,11.90
2022-11-05T19:05:37.889Z,11.80
2022-11-05T19:08:09.597Z,12.00
2022-11-05T19:10:41.396Z,11.80
2022-11-05T19:13:09.972Z,11.90
2022-11-05T19:15:37.985Z,12.20
2022-11-05T19:18:06.263Z,12.10
2022-11-05T19:20:37.927Z,12.10
2022-11-05T19:23:06.238Z,11.70
2022-11-05T19:25:34.322Z,11.90
2022-11-05T19:28:02.874Z,11.80
2022-11-05T19:30:31.116Z,12.20
2022-11-05T19:32:59.789Z,11.80
2022-11-05T19:35:28.437Z,12.10
2022-11-05T19:38:00.716Z,12.30
2022-11-05T19:40:29.940Z,12.00
2022-11-05T19:42:59.714Z,11.90
2022-11-05T19:45:44.234Z,11.80
2022-11-05T19:48:19.138Z,11.80
2022-11-05T19:50:48.122Z,11.70
2022-11-05T19:53:17.954Z,11.50
2022-11-05T19:55:46.291Z,11.60
2022-11-05T19:58:14.752Z,11.40
2022-11-05T20:00:44.237Z,11.80
2022-11-05T20:03:13.130Z,11.60
2022-11-05T20:05:41.472Z,11.80
2022-11-05T20:08:09.729Z,12.00
2022-11-05T20:10:39.744Z,12.00
2022-11-05T20:13:08.730Z,11.90
2022-11-05T20:15:38.520Z,12.10
2022-11-05T20:18:08.838Z,12.00
2022-11-05T20:20:37.295Z,11.90
2022-11-05T20:23:05.388Z,11.80
2022-11-05T20:25:34.337Z,11.80
2022-11-05T20:28:03.848Z,11.70
2022-11-05T20:30:32.460Z,11.80
2022-11-05T20:33:00.542Z,12.00
2022-11-05T20:35:30.662Z,11.90
2022-11-05T20:37:59.709Z,11.60
2022-11-05T20:40:27.715Z,11.60
2022-11-05T20:42:56.226Z,11.70
2022-11-05T20:45:26.984Z,11.90
2022-11-05T20:47:55.946Z,11.70
2022-11-05T20:50:24.756Z,11.50
2022-11-05T20:52:52.782Z,11.80
2022-11-05T20:55:21.464Z,12.20
2022-11-05T20:57:49.456Z,12.10
2022-11-05T21:00:17.862Z,12.00
2022-11-05T21:02:47.570Z,12.20
2022-11-05T21:05:19.627Z,12.20
2022-11-05T21:07:47.621Z,12.20
2022-11-05T21:10:15.925Z,12.10
2022-11-05T21:12:44.953Z,12.20
2022-11-05T21:15:13.023Z,12.10
2022-11-05T21:17:41.662Z,12.30
2022-11-05T21:20:12.290Z,12.20
2022-11-05T21:22:42.929Z,12.30
2022-11-05T21:25:11.170Z,11.90
2022-11-05T21:27:43.463Z,11.70
2022-11-05T21:30:12.829Z,12.00
2022-11-05T21:32:41.294Z,11.80
2022-11-05T21:35:11.160Z,12.00
2022-11-05T21:37:39.728Z,11.60
2022-11-05T21:40:08.723Z,11.30
2022-11-05T21:42:36.898Z,11.50
2022-11-05T21:45:09.042Z,11.10
2022-11-05T21:47:37.092Z,11.50
2022-11-05T21:50:05.877Z,11.60
2022-11-05T21:52:53.615Z,11.70
2022-11-05T21:55:39.840Z,11.70
2022-11-05T21:58:30.338Z,11.50
2022-11-05T22:00:59.490Z,11.20
2022-11-05T22:03:27.494Z,11.10
2022-11-05T22:05:58.102Z,11.20
2022-11-05T22:08:28.210Z,11.40
2022-11-05T22:10:56.386Z,10.90
2022-11-05T22:13:24.360Z,11.40
2022-11-05T22:15:56.694Z,11.50
2022-11-05T22:18:24.757Z,11.20
2022-11-05T22:20:53.008Z,11.00
2022-11-05T22:23:21.290Z,11.10
2022-11-05T22:25:50.604Z,11.40
2022-11-05T22:28:19.241Z,11.40
2022-11-05T22:30:47.243Z,11.40
2022-11-05T22:33:17.059Z,11.50
2022-11-05T22:35:45.504Z,11.30
2022-11-05T22:38:14.301Z,11.40
2022-11-05T22:40:45.482Z,11.00
2022-11-05T22:43:14.879Z,11.00
2022-11-05T22:45:43.919Z,11.30
2022-11-05T22:48:12.420Z,11.40
2022-11-05T22:50:43.676Z,11.50
2022-11-05T22:53:12.384Z,10.90
2022-11-05T22:55:41.123Z,11.00
2022-11-05T22:58:09.456Z,11.10
2022-11-05T23:00:39.809Z,10.90
2022-11-05T23:03:08.080Z,10.80
2022-11-05T23:05:36.154Z,10.80
2022-11-05T23:08:22.837Z,11.20
2022-11-05T23:11:22.871Z,11.30
2022-11-05T23:13:51.037Z,10.90
2022-11-05T23:16:38.302Z,10.90
2022-11-05T23:19:23.928Z,10.80
2022-11-05T23:22:09.458Z,10.90
2022-11-05T23:24:37.533Z,11.20
2022-11-05T23:27:07.962Z,11.40
2022-11-05T23:29:36.427Z,11.50
2022-11-05T23:32:25.441Z,11.30
2022-11-05T23:34:54.342Z,11.10
2022-11-05T23:37:40.831Z,11.40
2022-11-05T23:40:12.482Z,11.40
2022-11-05T23:43:10.562Z,11.30
2022-11-05T23:46:00.065Z,10.90
2022-11-05T23:48:32.155Z,10.90
2022-11-05T23:51:03.348Z,10.90
2022-11-05T23:53:34.756Z,10.90
2022-11-05T23:56:06.801Z,10.70
2022-11-05T23:58:35.234Z,10.90
